createdAt,value
2019-03-28T00:01:48.687Z,21.20
2019-03-28T00:04:18.465Z,19.17
2019-03-28T00:06:48.233Z,19.77
2019-03-28T00:09:19.318Z,19.63
2019-03-28T00:11:49.646Z,21.43
2019-03-28T00:14:19.959Z,20.30
2019-03-28T00:16:50.111Z,20.02
2019-03-28T00:19:19.883Z,22.70
2019-03-28T00:21:50.751Z,22.50
2019-03-28T00:24:25.796Z,23.00
2019-03-28T00:26:55.631Z,20.73
2019-03-28T00:29:26.290Z,18.83
2019-03-28T00:31:56.484Z,20.00
2019-03-28T00:34:26.232Z,19.10
2019-03-28T00:36:56.040Z,19.40
2019-03-28T00:39:26.039Z,20.52
2019-03-28T00:41:55.845Z,19.93
2019-03-28T00:44:25.663Z,19.27
2019-03-28T00:46:55.492Z,19.43
2019-03-28T00:49:26.314Z,20.57
2019-03-28T00:51:56.216Z,23.10
2019-03-28T00:54:26.146Z,28.17
2019-03-28T00:56:56.215Z,23.10
2019-03-28T00:59:26.471Z,19.77
2019-03-28T01:01:56.270Z,20.00
2019-03-28T01:04:25.959Z,21.67
2019-03-28T01:06:56.346Z,19.37
2019-03-28T01:09:26.915Z,18.47
2019-03-28T01:11:56.974Z,19.57
2019-03-28T01:14:26.688Z,19.73
2019-03-28T01:16:57.337Z,21.50
2019-03-28T01:19:27.519Z,17.30
2019-03-28T01:21:57.326Z,19.13
2019-03-28T01:24:27.183Z,19.30
2019-03-28T01:26:58.828Z,19.05
2019-03-28T01:29:29.097Z,19.50
2019-03-28T01:31:58.787Z,19.12
2019-03-28T01:34:29.155Z,18.70
2019-03-28T01:36:59.155Z,18.60
2019-03-28T01:39:28.946Z,17.13
2019-03-28T01:41:58.927Z,18.40
2019-03-28T01:44:29.707Z,18.60
2019-03-28T01:46:59.476Z,17.80
2019-03-28T01:49:29.305Z,18.50
2019-03-28T01:51:59.166Z,17.70
2019-03-28T01:54:29.460Z,18.15
2019-03-28T01:57:10.328Z,18.10
2019-03-28T01:59:31.608Z,18.50
2019-03-28T02:02:01.438Z,18.60
2019-03-28T02:04:31.191Z,18.50
2019-03-28T02:07:00.972Z,18.43
2019-03-28T02:09:30.827Z,19.62
2019-03-28T02:12:00.630Z,18.73
2019-03-28T02:14:30.410Z,19.40
2019-03-28T02:17:00.955Z,18.60
2019-03-28T02:19:30.712Z,18.70
2019-03-28T02:22:00.858Z,18.30
2019-03-28T02:24:31.027Z,18.87
2019-03-28T02:27:00.883Z,19.97
2019-03-28T02:29:30.683Z,19.20
2019-03-28T02:32:00.532Z,17.80
2019-03-28T02:34:30.693Z,18.47
2019-03-28T02:37:00.916Z,19.25
2019-03-28T02:39:30.664Z,18.10
2019-03-28T02:42:01.590Z,18.40
2019-03-28T02:44:31.707Z,18.20
2019-03-28T02:47:01.591Z,18.80
2019-03-28T02:49:31.811Z,19.63
2019-03-28T02:52:01.583Z,19.07
2019-03-28T02:54:31.627Z,20.20
2019-03-28T02:57:01.961Z,20.60
2019-03-28T02:59:31.784Z,18.35
2019-03-28T03:02:01.860Z,19.90
2019-03-28T03:04:31.661Z,20.80
2019-03-28T03:07:01.502Z,20.93
2019-03-28T03:09:31.344Z,30.90
2019-03-28T03:12:01.362Z,33.47
2019-03-28T03:14:31.417Z,34.73
2019-03-28T03:17:01.460Z,26.37
2019-03-28T03:19:31.714Z,25.13
2019-03-28T03:22:02.059Z,20.40
2019-03-28T03:24:33.046Z,18.87
2019-03-28T03:27:02.854Z,20.50
2019-03-28T03:29:32.639Z,18.95
2019-03-28T03:32:02.708Z,19.43
2019-03-28T03:34:33.155Z,18.92
2019-03-28T03:37:04.009Z,21.70
2019-03-28T03:39:34.509Z,21.10
2019-03-28T03:42:04.235Z,19.07
2019-03-28T03:44:33.979Z,19.63
2019-03-28T03:47:04.076Z,20.50
2019-03-28T03:49:33.788Z,19.73
2019-03-28T03:52:03.641Z,19.67
2019-03-28T03:54:33.464Z,20.80
2019-03-28T03:57:03.688Z,19.37
2019-03-28T03:59:33.969Z,19.33
2019-03-28T04:02:04.143Z,20.30
2019-03-28T04:04:33.885Z,20.50
2019-03-28T04:07:03.699Z,23.20
2019-03-28T04:09:33.528Z,20.47
2019-03-28T04:12:03.354Z,20.65
2019-03-28T04:14:33.242Z,20.57
2019-03-28T04:17:03.678Z,21.13
2019-03-28T04:19:33.434Z,19.43
2019-03-28T04:22:03.201Z,19.27
2019-03-28T04:24:32.909Z,18.62
2019-03-28T04:27:03.676Z,17.87
2019-03-28T04:29:33.567Z,18.50
2019-03-28T04:32:03.385Z,29.05
2019-03-28T04:34:33.232Z,32.07
2019-03-28T04:37:03.413Z,23.83
2019-03-28T04:39:33.272Z,21.00
2019-03-28T04:42:03.076Z,21.90
2019-03-28T04:44:32.830Z,18.42
2019-03-28T04:47:02.586Z,18.23
2019-03-28T04:49:32.343Z,20.00
2019-03-28T04:52:02.467Z,24.57
2019-03-28T04:54:32.207Z,21.67
2019-03-28T04:57:02.289Z,19.80
2019-03-28T04:59:32.136Z,19.57
2019-03-28T05:02:05.123Z,17.82
2019-03-28T05:04:35.225Z,17.85
2019-03-28T05:07:05.084Z,18.37
2019-03-28T05:09:34.899Z,19.40
2019-03-28T05:12:06.773Z,20.50
2019-03-28T05:14:38.509Z,18.77
2019-03-28T05:17:08.630Z,19.35
2019-03-28T05:19:38.438Z,18.17
2019-03-28T05:22:08.288Z,20.40
2019-03-28T05:24:38.138Z,19.87
2019-03-28T05:27:08.461Z,18.80
2019-03-28T05:29:38.591Z,20.08
2019-03-28T05:32:08.387Z,20.40
2019-03-28T05:34:38.427Z,20.90
2019-03-28T05:37:08.203Z,21.50
2019-03-28T05:39:38.820Z,21.23
2019-03-28T05:42:08.736Z,19.90
2019-03-28T05:44:38.524Z,21.10
2019-03-28T05:47:08.382Z,21.40
2019-03-28T05:49:38.551Z,19.37
2019-03-28T05:52:11.621Z,19.23
2019-03-28T05:54:40.283Z,20.10
2019-03-28T05:57:10.666Z,19.97
2019-03-28T05:59:40.616Z,19.50
2019-03-28T06:02:13.611Z,19.37
2019-03-28T06:04:43.404Z,19.50
2019-03-28T06:07:13.140Z,18.63
2019-03-28T06:09:43.076Z,18.17
2019-03-28T06:12:12.980Z,17.83
2019-03-28T06:14:43.237Z,16.67
2019-03-28T06:17:12.980Z,17.10
2019-03-28T06:19:42.801Z,18.23
2019-03-28T06:22:13.422Z,17.27
2019-03-28T06:24:44.138Z,19.42
2019-03-28T06:27:13.918Z,17.23
2019-03-28T06:29:43.712Z,17.80
2019-03-28T06:32:14.895Z,18.00
2019-03-28T06:34:44.731Z,17.67
2019-03-28T06:37:14.789Z,18.27
2019-03-28T06:39:44.640Z,18.57
2019-03-28T06:42:14.814Z,18.53
2019-03-28T06:44:44.670Z,19.32
2019-03-28T06:47:14.850Z,17.93
2019-03-28T06:49:45.575Z,19.17
2019-03-28T06:52:15.807Z,18.20
2019-03-28T06:54:45.953Z,19.97
2019-03-28T06:57:18.930Z,21.20
2019-03-28T06:59:48.298Z,17.80
2019-03-28T07:02:18.036Z,18.70
2019-03-28T07:04:48.471Z,19.67
2019-03-28T07:07:21.327Z,20.63
2019-03-28T07:09:51.100Z,20.07
2019-03-28T07:12:20.980Z,20.00
2019-03-28T07:14:50.863Z,19.10
2019-03-28T07:17:23.168Z,18.77
2019-03-28T07:19:53.338Z,19.67
2019-03-28T07:22:23.119Z,19.80
2019-03-28T07:24:58.688Z,21.77
2019-03-28T07:27:28.751Z,21.35
2019-03-28T07:29:58.859Z,24.07
2019-03-28T07:32:30.464Z,23.45
2019-03-28T07:35:00.663Z,22.10
2019-03-28T07:37:30.679Z,22.50
2019-03-28T07:40:01.858Z,21.63
2019-03-28T07:42:31.804Z,21.77
2019-03-28T07:45:01.575Z,21.67
2019-03-28T07:47:31.435Z,22.03
2019-03-28T07:50:01.115Z,22.80
2019-03-28T07:52:30.957Z,21.80
2019-03-28T07:55:03.370Z,21.73
2019-03-28T07:57:33.560Z,21.07
2019-03-28T08:00:05.383Z,21.60
2019-03-28T08:02:35.688Z,23.13
2019-03-28T08:05:07.782Z,20.30
2019-03-28T08:07:45.054Z,21.10
2019-03-28T08:10:10.060Z,21.37
2019-03-28T08:12:40.450Z,20.68
2019-03-28T08:15:11.464Z,22.33
2019-03-28T08:17:42.460Z,22.73
2019-03-28T08:20:13.884Z,21.27
2019-03-28T08:22:44.471Z,22.62
2019-03-28T08:25:14.833Z,22.77
2019-03-28T08:27:45.486Z,22.27
2019-03-28T08:30:19.299Z,24.13
2019-03-28T08:32:48.201Z,24.73
2019-03-28T08:35:19.673Z,24.57
2019-03-28T08:37:51.619Z,24.27
2019-03-28T08:40:38.023Z,25.97
2019-03-28T08:43:07.470Z,27.53
2019-03-28T08:45:41.571Z,26.30
2019-03-28T08:48:11.315Z,24.90
2019-03-28T08:50:41.097Z,25.30
2019-03-28T08:53:13.331Z,26.27
2019-03-28T08:55:45.098Z,23.60
2019-03-28T08:58:16.271Z,24.60
2019-03-28T09:00:52.331Z,24.40
2019-03-28T09:03:17.893Z,25.65
2019-03-28T09:05:47.751Z,26.77
2019-03-28T09:08:18.797Z,25.77
2019-03-28T09:10:49.777Z,26.40
2019-03-28T09:13:19.632Z,25.57
2019-03-28T09:15:50.059Z,24.60
2019-03-28T09:18:20.246Z,25.77
2019-03-28T09:20:50.299Z,26.30
2019-03-28T09:23:20.799Z,23.43
2019-03-28T09:25:50.602Z,22.07
2019-03-28T09:28:20.436Z,22.47
2019-03-28T09:30:50.331Z,21.97
2019-03-28T09:33:20.181Z,22.03
2019-03-28T09:35:50.536Z,21.30
2019-03-28T09:38:20.490Z,22.17
2019-03-28T09:40:53.550Z,23.10
2019-03-28T09:43:23.705Z,20.57
2019-03-28T09:45:53.540Z,21.10
2019-03-28T09:48:23.413Z,19.83
2019-03-28T09:50:53.267Z,20.83
2019-03-28T09:53:23.023Z,18.17
2019-03-28T09:55:54.060Z,18.70
2019-03-28T09:58:24.108Z,22.27
2019-03-28T10:01:02.573Z,18.77
2019-03-28T10:03:26.522Z,19.10
2019-03-28T10:05:56.402Z,21.43
2019-03-28T10:08:26.202Z,20.87
2019-03-28T10:10:56.036Z,17.80
2019-03-28T10:13:25.938Z,19.53
2019-03-28T10:15:57.393Z,17.70
2019-03-28T10:18:30.099Z,18.73
2019-03-28T10:20:59.181Z,17.17
2019-03-28T10:23:30.499Z,19.17
2019-03-28T10:26:00.339Z,18.77
2019-03-28T10:28:30.687Z,17.47
2019-03-28T10:31:01.275Z,18.63
2019-03-28T10:33:31.204Z,17.65
2019-03-28T10:36:01.539Z,17.30
2019-03-28T10:38:31.848Z,18.07
2019-03-28T10:41:02.539Z,16.70
2019-03-28T10:43:32.637Z,16.20
2019-03-28T10:46:02.740Z,16.43
2019-03-28T10:48:33.025Z,16.73
2019-03-28T10:51:12.084Z,14.83
2019-03-28T10:53:40.914Z,13.40
2019-03-28T10:56:21.622Z,12.73
2019-03-28T10:58:42.419Z,14.13
2019-03-28T11:01:12.760Z,11.80
2019-03-28T11:03:42.664Z,13.07
2019-03-28T11:06:12.636Z,13.00
2019-03-28T11:08:42.945Z,10.50
2019-03-28T11:11:12.968Z,11.60
2019-03-28T11:13:42.810Z,9.00
2019-03-28T11:16:15.062Z,10.07
2019-03-28T11:18:45.984Z,9.37
2019-03-28T11:21:16.282Z,6.15
2019-03-28T11:23:55.569Z,2.87
2019-03-28T11:26:25.762Z,2.80
2019-03-28T11:28:55.762Z,3.00
2019-03-28T11:31:25.770Z,1.93
2019-03-28T11:33:55.651Z,1.90
2019-03-28T11:36:25.764Z,5.00
2019-03-28T11:38:55.835Z,4.47
2019-03-28T11:41:25.639Z,4.90
2019-03-28T11:43:55.530Z,4.10
2019-03-28T11:46:25.751Z,2.90
2019-03-28T11:48:55.622Z,2.80
2019-03-28T11:51:25.446Z,2.60
2019-03-28T11:53:55.218Z,3.10
2019-03-28T11:56:25.027Z,3.52
2019-03-28T11:58:56.135Z,3.13
2019-03-28T12:01:26.007Z,3.80
2019-03-28T12:03:56.558Z,2.97
2019-03-28T12:06:26.401Z,3.67
2019-03-28T12:08:56.196Z,3.87
2019-03-28T12:11:26.267Z,5.53
2019-03-28T12:13:56.149Z,6.10
2019-03-28T12:16:26.248Z,5.50
2019-03-28T12:18:56.091Z,4.60
2019-03-28T12:21:25.813Z,5.60
2019-03-28T12:23:55.642Z,5.67
2019-03-28T12:26:25.595Z,5.87
2019-03-28T12:28:55.683Z,7.45
2019-03-28T12:31:27.163Z,6.50
2019-03-28T12:33:57.211Z,7.97
2019-03-28T12:36:26.963Z,8.53
2019-03-28T12:38:56.800Z,8.80
2019-03-28T12:41:28.964Z,8.13
2019-03-28T12:43:58.871Z,8.10
2019-03-28T12:46:28.597Z,9.50
2019-03-28T12:48:58.779Z,8.47
2019-03-28T12:51:28.904Z,9.20
2019-03-28T12:53:58.694Z,9.63
2019-03-28T12:56:28.540Z,7.87
2019-03-28T12:58:58.763Z,7.83
2019-03-28T13:01:28.639Z,7.20
2019-03-28T13:03:58.812Z,7.50
2019-03-28T13:06:31.291Z,6.60
2019-03-28T13:09:01.481Z,6.33
2019-03-28T13:11:31.456Z,7.33
2019-03-28T13:14:02.237Z,5.80
2019-03-28T13:16:31.948Z,4.43
2019-03-28T13:19:01.660Z,5.20
2019-03-28T13:21:31.774Z,5.40
2019-03-28T13:24:01.856Z,4.80
2019-03-28T13:26:32.078Z,6.40
2019-03-28T13:29:01.944Z,6.20
2019-03-28T13:31:31.794Z,5.73
2019-03-28T13:34:01.891Z,5.67
2019-03-28T13:36:31.855Z,6.00
2019-03-28T13:39:01.696Z,5.80
2019-03-28T13:41:31.919Z,5.80
2019-03-28T13:44:01.797Z,6.05
2019-03-28T13:46:32.563Z,5.57
2019-03-28T13:49:03.084Z,5.70
2019-03-28T13:51:33.178Z,5.10
2019-03-28T13:54:02.924Z,5.10
2019-03-28T13:56:33.086Z,5.30
2019-03-28T13:59:02.899Z,5.70
2019-03-28T14:01:33.145Z,4.60
2019-03-28T14:04:03.288Z,6.40
2019-03-28T14:06:33.416Z,5.28
2019-03-28T14:09:04.176Z,5.20
2019-03-28T14:11:34.061Z,6.00
2019-03-28T14:14:03.817Z,6.17
2019-03-28T14:16:34.076Z,5.83
2019-03-28T14:19:04.604Z,6.20
2019-03-28T14:21:34.560Z,6.07
2019-03-28T14:24:04.255Z,6.17
2019-03-28T14:26:37.410Z,5.90
2019-03-28T14:29:07.141Z,6.55
2019-03-28T14:31:37.151Z,6.90
2019-03-28T14:34:07.081Z,6.63
2019-03-28T14:36:38.002Z,7.23
2019-03-28T14:39:11.177Z,7.63
2019-03-28T14:41:41.576Z,6.63
2019-03-28T14:44:11.398Z,7.87
2019-03-28T14:46:41.582Z,6.80
2019-03-28T14:49:12.170Z,6.93
2019-03-28T14:51:42.060Z,7.17
2019-03-28T14:54:11.987Z,7.10
2019-03-28T14:56:42.489Z,7.57
2019-03-28T14:59:13.916Z,7.53
2019-03-28T15:01:44.076Z,7.50
2019-03-28T15:04:13.847Z,7.90
2019-03-28T15:06:43.589Z,7.23
2019-03-28T15:09:13.389Z,7.00
2019-03-28T15:11:43.472Z,7.67
2019-03-28T15:14:13.759Z,13.35
2019-03-28T15:16:43.896Z,7.33
2019-03-28T15:19:13.867Z,8.60
2019-03-28T15:21:43.661Z,9.87
2019-03-28T15:24:13.417Z,8.10
2019-03-28T15:26:43.535Z,9.50
2019-03-28T15:29:14.067Z,8.07
2019-03-28T15:31:43.858Z,8.40
2019-03-28T15:34:13.670Z,9.30
2019-03-28T15:36:43.541Z,7.50
2019-03-28T15:39:13.328Z,6.30
2019-03-28T15:41:43.407Z,6.30
2019-03-28T15:44:13.207Z,6.37
2019-03-28T15:46:42.995Z,7.43
2019-03-28T15:49:12.772Z,8.40
2019-03-28T15:51:42.602Z,6.73
2019-03-28T15:54:12.444Z,5.67
2019-03-28T15:56:42.229Z,5.80
2019-03-28T15:59:12.100Z,6.23
2019-03-28T16:01:41.863Z,6.73
2019-03-28T16:04:12.484Z,6.43
2019-03-28T16:06:42.600Z,6.40
2019-03-28T16:09:12.314Z,6.23
2019-03-28T16:11:42.080Z,6.15
2019-03-28T16:14:11.890Z,6.00
2019-03-28T16:16:42.054Z,8.53
2019-03-28T16:19:12.148Z,7.73
2019-03-28T16:21:42.253Z,8.80
2019-03-28T16:24:12.470Z,8.93
2019-03-28T16:26:42.381Z,8.83
2019-03-28T16:29:12.136Z,7.90
2019-03-28T16:31:42.068Z,8.80
2019-03-28T16:34:12.492Z,8.60
2019-03-28T16:36:42.814Z,9.50
2019-03-28T16:39:13.145Z,13.10
2019-03-28T16:41:43.429Z,10.27
2019-03-28T16:44:13.409Z,8.93
2019-03-28T16:46:43.173Z,8.30
2019-03-28T16:49:14.181Z,8.30
2019-03-28T16:51:44.260Z,9.43
2019-03-28T16:54:14.164Z,10.83
2019-03-28T16:56:44.278Z,9.07
2019-03-28T16:59:14.018Z,8.73
2019-03-28T17:01:43.930Z,8.90
2019-03-28T17:04:20.608Z,8.83
2019-03-28T17:06:45.574Z,8.60
2019-03-28T17:09:15.382Z,9.58
2019-03-28T17:11:45.564Z,9.50
2019-03-28T17:14:15.380Z,9.20
2019-03-28T17:16:45.307Z,10.10
2019-03-28T17:19:15.159Z,10.20
2019-03-28T17:21:44.892Z,15.83
2019-03-28T17:24:14.770Z,12.83
2019-03-28T17:26:44.866Z,9.07
2019-03-28T17:29:14.694Z,9.53
2019-03-28T17:31:45.070Z,8.67
2019-03-28T17:34:15.963Z,9.10
2019-03-28T17:36:46.250Z,8.50
2019-03-28T17:39:16.063Z,8.70
2019-03-28T17:41:46.190Z,9.90
2019-03-28T17:44:15.995Z,9.10
2019-03-28T17:46:47.073Z,11.70
2019-03-28T17:49:16.891Z,30.10
2019-03-28T17:51:46.655Z,12.73
2019-03-28T17:54:16.701Z,9.30
2019-03-28T17:56:47.673Z,9.87
2019-03-28T17:59:18.194Z,9.20
2019-03-28T18:01:48.025Z,9.55
2019-03-28T18:04:23.022Z,10.10
2019-03-28T18:06:50.603Z,10.13
2019-03-28T18:09:21.394Z,10.73
2019-03-28T18:11:51.264Z,10.87
2019-03-28T18:14:21.446Z,10.85
2019-03-28T18:16:51.209Z,12.90
2019-03-28T18:19:21.143Z,19.20
2019-03-28T18:22:02.783Z,13.97
2019-03-28T18:24:22.536Z,11.33
2019-03-28T18:26:52.828Z,10.90
2019-03-28T18:29:22.959Z,11.53
2019-03-28T18:31:53.031Z,10.88
2019-03-28T18:34:22.908Z,11.00
2019-03-28T18:36:52.745Z,11.03
2019-03-28T18:39:22.559Z,11.80
2019-03-28T18:41:52.412Z,11.63
2019-03-28T18:44:22.272Z,10.87
2019-03-28T18:46:52.195Z,10.50
2019-03-28T18:49:22.777Z,12.33
2019-03-28T18:51:52.691Z,12.00
2019-03-28T18:54:22.892Z,11.93
2019-03-28T18:56:52.781Z,11.43
2019-03-28T18:59:23.732Z,11.13
2019-03-28T19:01:54.369Z,10.13
2019-03-28T19:04:24.346Z,9.03
2019-03-28T19:06:57.489Z,9.83
2019-03-28T19:09:25.898Z,9.40
2019-03-28T19:11:56.156Z,9.13
2019-03-28T19:14:26.402Z,8.80
2019-03-28T19:16:56.270Z,9.10
2019-03-28T19:19:38.830Z,8.80
2019-03-28T19:21:57.796Z,10.78
2019-03-28T19:24:27.901Z,11.33
2019-03-28T19:26:57.791Z,10.10
2019-03-28T19:29:27.739Z,8.80
2019-03-28T19:31:57.945Z,8.80
2019-03-28T19:34:27.769Z,7.67
2019-03-28T19:36:58.271Z,8.50
2019-03-28T19:39:30.688Z,7.97
2019-03-28T19:42:04.081Z,8.50
2019-03-28T19:44:32.814Z,8.10
2019-03-28T19:47:02.729Z,7.77
2019-03-28T19:49:32.672Z,8.55
2019-03-28T19:52:02.520Z,11.80
2019-03-28T19:54:33.355Z,9.30
2019-03-28T19:57:04.174Z,7.80
2019-03-28T19:59:34.182Z,8.00
2019-03-28T20:02:04.047Z,9.17
2019-03-28T20:04:33.911Z,8.23
2019-03-28T20:07:04.523Z,7.63
2019-03-28T20:09:34.707Z,7.97
2019-03-28T20:12:05.431Z,8.08
2019-03-28T20:14:36.000Z,8.33
2019-03-28T20:17:05.988Z,8.33
2019-03-28T20:19:36.307Z,7.90
2019-03-28T20:22:06.163Z,7.47
2019-03-28T20:24:36.035Z,7.23
2019-03-28T20:27:05.949Z,7.17
2019-03-28T20:29:35.917Z,7.90
2019-03-28T20:32:08.260Z,7.97
2019-03-28T20:34:37.978Z,8.47
2019-03-28T20:37:08.211Z,6.95
2019-03-28T20:39:38.432Z,7.17
2019-03-28T20:42:08.952Z,8.10
2019-03-28T20:44:39.408Z,8.47
2019-03-28T20:47:09.368Z,7.35
2019-03-28T20:49:39.332Z,7.50
2019-03-28T20:52:09.716Z,8.10
2019-03-28T20:54:39.608Z,8.77
2019-03-28T20:57:09.990Z,8.75
2019-03-28T20:59:41.216Z,9.30
2019-03-28T21:02:11.230Z,8.80
2019-03-28T21:04:41.006Z,9.17
2019-03-28T21:07:11.230Z,9.03
2019-03-28T21:09:41.443Z,9.40
2019-03-28T21:12:11.317Z,9.30
2019-03-28T21:14:41.511Z,9.40
2019-03-28T21:17:11.653Z,9.60
2019-03-28T21:19:44.807Z,11.30
2019-03-28T21:22:15.285Z,9.48
2019-03-28T21:24:45.231Z,9.47
2019-03-28T21:27:15.479Z,9.43
2019-03-28T21:29:49.018Z,9.43
2019-03-28T21:32:16.885Z,10.00
2019-03-28T21:34:46.962Z,10.08
2019-03-28T21:37:17.443Z,10.73
2019-03-28T21:39:47.664Z,10.87
2019-03-28T21:42:17.614Z,9.83
2019-03-28T21:44:48.764Z,9.27
2019-03-28T21:47:19.064Z,11.20
2019-03-28T21:49:48.848Z,10.88
2019-03-28T21:52:18.871Z,10.65
2019-03-28T21:54:48.732Z,10.30
2019-03-28T21:57:18.561Z,10.80
2019-03-28T21:59:48.931Z,11.70
2019-03-28T22:02:19.252Z,12.13
2019-03-28T22:04:49.117Z,11.57
2019-03-28T22:07:18.986Z,11.73
2019-03-28T22:09:48.874Z,10.85
2019-03-28T22:12:19.092Z,12.03
2019-03-28T22:14:51.425Z,11.90
2019-03-28T22:17:21.695Z,11.03
2019-03-28T22:19:51.835Z,11.20
2019-03-28T22:22:22.416Z,10.00
2019-03-28T22:24:52.255Z,11.13
2019-03-28T22:27:22.188Z,10.73
2019-03-28T22:29:52.059Z,11.30
2019-03-28T22:32:23.013Z,10.90
2019-03-28T22:34:53.275Z,10.43
2019-03-28T22:37:23.214Z,10.40
2019-03-28T22:39:53.081Z,11.57
2019-03-28T22:42:22.990Z,11.57
2019-03-28T22:44:52.862Z,11.40
2019-03-28T22:47:22.675Z,10.63
2019-03-28T22:49:52.545Z,11.60
2019-03-28T22:52:22.506Z,11.37
2019-03-28T22:54:52.300Z,11.67
2019-03-28T22:57:22.233Z,11.63
2019-03-28T22:59:53.468Z,13.00
2019-03-28T23:02:23.348Z,13.33
2019-03-28T23:04:53.345Z,12.20
2019-03-28T23:07:23.166Z,11.73
2019-03-28T23:09:53.382Z,11.60
2019-03-28T23:12:23.644Z,10.57
2019-03-28T23:14:53.384Z,10.90
2019-03-28T23:17:23.898Z,10.23
2019-03-28T23:19:53.719Z,10.43
2019-03-28T23:22:23.924Z,11.77
2019-03-28T23:24:54.262Z,12.05
2019-03-28T23:27:24.131Z,10.45
2019-03-28T23:29:54.508Z,10.87
2019-03-28T23:32:25.755Z,11.40
2019-03-28T23:34:56.151Z,11.90
2019-03-28T23:37:26.777Z,11.40
2019-03-28T23:39:56.999Z,10.17
2019-03-28T23:42:26.946Z,12.20
2019-03-28T23:44:57.111Z,10.75
2019-03-28T23:47:26.973Z,11.13
2019-03-28T23:49:56.819Z,10.30
2019-03-28T23:52:27.147Z,13.00
2019-03-28T23:54:56.995Z,11.47
2019-03-28T23:57:26.989Z,10.78
2019-03-28T23:59:56.862Z,10.65
